Altair, Texas
Current Conditions -  °F | °C
As of 3:55 AM on Saturday 22 Nov 2014 (Local Time) from K66R Reporting Station
Overcast Overcast  
Wind Chill: 62°   Ceiling: 400
Heat Index: 62°   Visibility: 7mi
Dew Point: 62°   Wind: 8mph
Humidity: 99%   Direction: 90°E
Pressure: 30.06"   Gusts: NA
Location:  29.57°N, 96.45°W
Report Text: K66R 220955Z AUTO 09007KT 7SM BKN004 OVC035 17/17 A3006 RMK AO2 LTG DSNT NW T01670165
Loading
Personal Weather Stations






























Interactive Weather Map New forecast layout! Learn more

10-Day Weather Forecast

Advertisements
Track Severe Weather on mobile